createdAt,value
2019-01-12T00:01:50.815Z,33.97
2019-01-12T00:04:22.116Z,32.03
2019-01-12T00:06:53.516Z,37.17
2019-01-12T00:09:24.443Z,56.60
2019-01-12T00:11:55.695Z,36.27
2019-01-12T00:14:26.880Z,33.23
2019-01-12T00:17:00.392Z,31.77
2019-01-12T00:19:32.069Z,32.77
2019-01-12T00:22:04.398Z,28.70
2019-01-12T00:24:35.462Z,31.60
2019-01-12T00:27:07.248Z,27.20
2019-01-12T00:29:38.155Z,27.53
2019-01-12T00:32:09.228Z,27.53
2019-01-12T00:34:40.564Z,29.53
2019-01-12T00:37:10.984Z,26.97
2019-01-12T00:39:42.528Z,27.40
2019-01-12T00:42:13.784Z,28.17
2019-01-12T00:44:44.968Z,26.83
2019-01-12T00:47:16.289Z,27.67
2019-01-12T00:49:48.204Z,27.20
2019-01-12T00:52:19.682Z,27.77
2019-01-12T00:54:51.948Z,26.27
2019-01-12T00:57:23.039Z,26.00
2019-01-12T00:59:53.855Z,25.33
2019-01-12T01:02:24.800Z,27.97
2019-01-12T01:04:56.040Z,103.90
2019-01-12T01:07:27.465Z,28.60
2019-01-12T01:09:58.305Z,24.00
2019-01-12T01:12:29.981Z,23.77
2019-01-12T01:15:01.300Z,25.30
2019-01-12T01:17:32.539Z,21.63
2019-01-12T01:20:04.095Z,21.90
2019-01-12T01:22:35.468Z,20.20
2019-01-12T01:25:07.412Z,21.77
2019-01-12T01:27:39.066Z,20.40
2019-01-12T01:30:16.609Z,19.83
2019-01-12T01:32:48.797Z,22.80
2019-01-12T01:35:19.758Z,18.57
2019-01-12T01:37:52.367Z,21.63
2019-01-12T01:40:23.433Z,19.70
2019-01-12T01:42:54.207Z,19.13
2019-01-12T01:45:24.432Z,20.00
2019-01-12T01:47:54.846Z,20.03
2019-01-12T01:50:25.699Z,20.77
2019-01-12T01:52:56.254Z,19.03
2019-01-12T01:55:26.684Z,20.23
2019-01-12T01:57:57.703Z,19.10
2019-01-12T02:00:28.328Z,17.90
2019-01-12T02:02:58.855Z,17.40
2019-01-12T02:05:29.225Z,17.67
2019-01-12T02:07:59.743Z,18.00
2019-01-12T02:10:30.196Z,18.77
2019-01-12T02:13:01.238Z,19.47
2019-01-12T02:15:31.565Z,16.43
2019-01-12T02:18:01.795Z,20.50
2019-01-12T02:20:32.377Z,17.77
2019-01-12T02:23:02.858Z,18.57
2019-01-12T02:25:33.624Z,18.73
2019-01-12T02:28:04.606Z,17.53
2019-01-12T02:30:36.101Z,18.60
2019-01-12T02:33:07.017Z,19.03
2019-01-12T02:35:38.474Z,19.27
2019-01-12T02:38:09.369Z,17.90
2019-01-12T02:40:41.261Z,17.53
2019-01-12T02:43:12.772Z,19.27
2019-01-12T02:45:43.688Z,17.20
2019-01-12T02:48:14.711Z,18.80
2019-01-12T02:50:46.173Z,17.97
2019-01-12T02:53:16.986Z,16.73
2019-01-12T02:55:48.645Z,18.27
2019-01-12T02:58:22.030Z,19.07
2019-01-12T03:00:53.086Z,18.53
2019-01-12T03:03:24.015Z,16.50
2019-01-12T03:05:55.735Z,18.87
2019-01-12T03:08:26.576Z,18.03
2019-01-12T03:10:58.459Z,22.20
2019-01-12T03:13:29.239Z,18.40
2019-01-12T03:16:00.937Z,17.57
2019-01-12T03:18:32.137Z,17.87
2019-01-12T03:21:03.824Z,19.13
2019-01-12T03:23:35.341Z,19.73
2019-01-12T03:26:06.348Z,18.30
2019-01-12T03:28:37.249Z,20.07
2019-01-12T03:31:08.097Z,17.40
2019-01-12T03:33:39.080Z,18.33
2019-01-12T03:36:10.085Z,16.73
2019-01-12T03:38:41.418Z,18.07
2019-01-12T03:41:12.469Z,18.07
2019-01-12T03:43:43.387Z,18.63
2019-01-12T03:46:14.520Z,17.80
2019-01-12T03:48:46.105Z,17.67
2019-01-12T03:51:17.513Z,18.43
2019-01-12T03:53:48.893Z,18.90
2019-01-12T03:56:19.963Z,17.07
2019-01-12T03:58:50.716Z,17.30
2019-01-12T04:01:21.718Z,18.40
2019-01-12T04:03:53.210Z,18.70
2019-01-12T04:06:25.336Z,19.17
2019-01-12T04:08:56.450Z,17.53
2019-01-12T04:11:27.633Z,17.93
2019-01-12T04:13:58.440Z,18.00
2019-01-12T04:16:29.854Z,17.37
2019-01-12T04:19:00.622Z,17.87
2019-01-12T04:21:32.057Z,17.53
2019-01-12T04:24:03.226Z,18.10
2019-01-12T04:26:34.406Z,17.30
2019-01-12T04:29:05.679Z,18.27
2019-01-12T04:31:37.321Z,18.47
2019-01-12T04:34:08.542Z,18.00
2019-01-12T04:36:39.687Z,17.63
2019-01-12T04:39:10.359Z,15.77
2019-01-12T04:41:41.927Z,16.60
2019-01-12T04:44:12.897Z,16.63
2019-01-12T04:46:44.226Z,18.27
2019-01-12T04:49:14.994Z,16.50
2019-01-12T04:51:46.392Z,16.07
2019-01-12T04:54:17.994Z,17.20
2019-01-12T04:56:48.798Z,16.23
2019-01-12T04:59:19.954Z,15.80
2019-01-12T05:01:51.052Z,15.03
2019-01-12T05:04:22.742Z,13.70
2019-01-12T05:06:53.348Z,13.53
2019-01-12T05:09:24.406Z,14.83
2019-01-12T05:11:56.171Z,14.33
2019-01-12T05:14:26.804Z,13.73
2019-01-12T05:16:59.777Z,13.83
2019-01-12T05:19:30.733Z,14.97
2019-01-12T05:22:01.158Z,13.30
2019-01-12T05:24:31.724Z,15.00
2019-01-12T05:27:02.418Z,15.37
2019-01-12T05:29:32.746Z,16.13
2019-01-12T05:32:03.347Z,14.23
2019-01-12T05:34:33.728Z,17.47
2019-01-12T05:37:04.430Z,15.93
2019-01-12T05:39:35.157Z,14.77
2019-01-12T05:42:05.896Z,16.00
2019-01-12T05:44:36.191Z,16.83
2019-01-12T05:47:07.639Z,14.87
2019-01-12T05:49:40.784Z,14.97
2019-01-12T05:52:11.267Z,13.37
2019-01-12T05:54:41.789Z,14.37
2019-01-12T05:57:12.223Z,14.73
2019-01-12T05:59:43.288Z,16.27
2019-01-12T06:02:14.177Z,16.90
2019-01-12T06:04:46.370Z,14.73
2019-01-12T06:07:17.689Z,14.97
2019-01-12T06:09:48.113Z,16.03
2019-01-12T06:12:18.433Z,14.30
2019-01-12T06:14:48.825Z,16.50
2019-01-12T06:17:20.165Z,17.43
2019-01-12T06:19:51.055Z,16.60
2019-01-12T06:22:21.439Z,15.40
2019-01-12T06:24:52.093Z,15.93
2019-01-12T06:27:22.849Z,16.70
2019-01-12T06:29:53.315Z,15.90
2019-01-12T06:32:23.610Z,16.37
2019-01-12T06:34:54.575Z,17.30
2019-01-12T06:37:25.042Z,16.33
2019-01-12T06:39:55.616Z,16.07
2019-01-12T06:42:26.146Z,15.37
2019-01-12T06:44:56.977Z,16.33
2019-01-12T06:47:28.480Z,16.83
2019-01-12T06:49:59.221Z,17.43
2019-01-12T06:52:32.185Z,16.03
2019-01-12T06:55:03.859Z,16.23
2019-01-12T06:57:35.148Z,17.03
2019-01-12T07:00:10.374Z,16.70
2019-01-12T07:02:42.458Z,14.70
2019-01-12T07:05:13.171Z,14.87
2019-01-12T07:07:46.750Z,16.17
2019-01-12T07:10:18.620Z,14.07
2019-01-12T07:12:50.661Z,16.83
2019-01-12T07:15:21.609Z,15.77
2019-01-12T07:17:52.099Z,15.80
2019-01-12T07:20:22.662Z,14.90
2019-01-12T07:22:53.279Z,15.13
2019-01-12T07:25:24.289Z,14.77
2019-01-12T07:27:58.931Z,13.80
2019-01-12T07:30:30.276Z,14.73
2019-01-12T07:33:01.172Z,14.67
2019-01-12T07:35:33.834Z,13.27
2019-01-12T07:38:05.655Z,13.27
2019-01-12T07:40:36.622Z,13.13
2019-01-12T07:43:07.970Z,15.27
2019-01-12T07:45:38.893Z,13.87
2019-01-12T07:48:09.304Z,12.70
2019-01-12T07:50:40.643Z,13.93
2019-01-12T07:53:11.958Z,14.37
2019-01-12T07:55:43.941Z,13.20
2019-01-12T07:58:15.277Z,14.00
2019-01-12T08:00:46.232Z,13.23
2019-01-12T08:03:17.746Z,14.37
2019-01-12T08:05:49.395Z,13.53
2019-01-12T08:08:21.140Z,13.70
2019-01-12T08:10:52.464Z,15.43
2019-01-12T08:13:23.911Z,14.10
2019-01-12T08:15:54.864Z,12.63
2019-01-12T08:18:25.800Z,12.17
2019-01-12T08:20:57.520Z,11.87
2019-01-12T08:23:28.525Z,11.70
2019-01-12T08:25:59.449Z,12.53
2019-01-12T08:28:29.967Z,12.80
2019-01-12T08:31:00.203Z,13.80
2019-01-12T08:33:31.266Z,14.53
2019-01-12T08:36:02.825Z,14.07
2019-01-12T08:38:34.026Z,16.37
2019-01-12T08:41:05.105Z,15.20
2019-01-12T08:43:35.946Z,14.20
2019-01-12T08:46:06.629Z,18.00
2019-01-12T08:48:37.745Z,21.97
2019-01-12T08:51:10.300Z,23.57
2019-01-12T08:53:41.220Z,24.47
2019-01-12T08:56:12.100Z,23.70
2019-01-12T08:58:43.380Z,26.53
2019-01-12T09:01:14.980Z,26.40
2019-01-12T09:03:46.576Z,26.67
2019-01-12T09:06:17.697Z,27.30
2019-01-12T09:08:49.376Z,26.37
2019-01-12T09:11:20.576Z,25.47
2019-01-12T09:13:51.977Z,27.53
2019-01-12T09:16:22.857Z,25.40
2019-01-12T09:18:54.257Z,27.60
2019-01-12T09:21:26.817Z,26.13
2019-01-12T09:23:59.416Z,25.90
2019-01-12T09:26:30.360Z,27.37
2019-01-12T09:29:01.556Z,25.57
2019-01-12T09:31:32.511Z,26.47
2019-01-12T09:34:03.594Z,28.70
2019-01-12T09:36:34.512Z,27.40
2019-01-12T09:39:08.753Z,25.77
2019-01-12T09:41:39.632Z,25.07
2019-01-12T09:46:43.644Z,25.93
2019-01-12T09:49:15.125Z,27.03
2019-01-12T09:51:46.087Z,26.20
2019-01-12T09:54:17.331Z,25.80
2019-01-12T09:56:51.931Z,27.10
2019-01-12T09:59:20.965Z,24.97
2019-01-12T10:01:51.976Z,24.33
2019-01-12T10:04:24.659Z,26.73
2019-01-12T10:06:55.541Z,24.87
2019-01-12T10:09:26.710Z,27.23
2019-01-12T10:11:57.827Z,27.43
2019-01-12T10:14:29.025Z,28.80
2019-01-12T10:16:59.804Z,30.93
2019-01-12T10:19:31.304Z,27.00
2019-01-12T10:22:02.643Z,28.43
2019-01-12T10:24:33.563Z,27.53
2019-01-12T10:27:04.443Z,32.07
2019-01-12T10:29:35.232Z,30.70
2019-01-12T10:32:06.884Z,27.10
2019-01-12T10:34:38.123Z,27.67
2019-01-12T10:37:09.044Z,26.63
2019-01-12T10:39:40.378Z,26.67
2019-01-12T10:42:11.310Z,27.10
2019-01-12T10:44:42.551Z,26.47
2019-01-12T10:47:13.654Z,25.27
2019-01-12T10:49:44.572Z,24.37
2019-01-12T10:52:16.142Z,24.47
2019-01-12T10:54:47.713Z,22.53
2019-01-12T10:57:18.920Z,23.73
2019-01-12T10:59:49.740Z,21.03
2019-01-12T11:02:24.918Z,22.53
2019-01-12T11:04:56.537Z,20.80
2019-01-12T11:07:28.112Z,21.00
2019-01-12T11:10:04.103Z,20.87
2019-01-12T11:12:33.251Z,19.93
2019-01-12T11:15:05.098Z,22.00
2019-01-12T11:17:36.481Z,20.47
2019-01-12T11:20:08.306Z,21.53
2019-01-12T11:22:39.822Z,19.90
2019-01-12T11:25:12.723Z,19.67
2019-01-12T11:27:44.568Z,19.20
2019-01-12T11:30:19.402Z,18.80
2019-01-12T11:32:50.792Z,19.60
2019-01-12T11:35:23.126Z,17.40
2019-01-12T11:37:54.520Z,17.77
2019-01-12T11:40:25.481Z,18.33
2019-01-12T11:42:57.098Z,18.57
2019-01-12T11:45:29.122Z,16.07
2019-01-12T11:48:00.096Z,16.97
2019-01-12T11:50:31.402Z,15.57
2019-01-12T11:53:02.516Z,14.87
2019-01-12T11:55:33.668Z,16.97
2019-01-12T11:58:05.079Z,16.20
2019-01-12T12:00:36.768Z,18.60
2019-01-12T12:03:08.120Z,18.37
2019-01-12T12:05:40.484Z,20.67
2019-01-12T12:08:11.816Z,20.27
2019-01-12T12:10:43.456Z,21.07
2019-01-12T12:13:14.729Z,20.23
2019-01-12T12:15:46.185Z,19.60
2019-01-12T12:18:17.720Z,19.60
2019-01-12T12:20:49.358Z,21.07
2019-01-12T12:23:20.536Z,20.47
2019-01-12T12:25:51.733Z,19.27
2019-01-12T12:28:23.057Z,19.87
2019-01-12T12:30:54.205Z,21.63
2019-01-12T12:33:25.104Z,20.87
2019-01-12T12:35:58.452Z,22.03
2019-01-12T12:38:29.618Z,21.27
2019-01-12T12:41:00.730Z,22.53
2019-01-12T12:43:32.354Z,22.93
2019-01-12T12:46:03.826Z,23.10
2019-01-12T12:48:35.327Z,24.87
2019-01-12T12:51:06.488Z,22.67
2019-01-12T12:53:37.398Z,23.57
2019-01-12T12:56:09.081Z,22.37
2019-01-12T12:58:39.843Z,21.50
2019-01-12T13:01:11.084Z,20.60
2019-01-12T13:03:42.266Z,21.97
2019-01-12T13:06:14.094Z,20.77
2019-01-12T13:08:48.506Z,21.13
2019-01-12T13:11:18.124Z,21.70
2019-01-12T13:13:48.945Z,20.90
2019-01-12T13:16:20.494Z,20.13
2019-01-12T13:18:51.586Z,17.70
2019-01-12T13:21:22.695Z,17.50
2019-01-12T13:23:53.507Z,19.40
2019-01-12T13:26:24.324Z,18.80
2019-01-12T13:28:55.497Z,19.23
2019-01-12T13:31:27.653Z,20.10
2019-01-12T13:33:58.510Z,20.47
2019-01-12T13:36:28.963Z,21.40
2019-01-12T13:38:59.932Z,21.67
2019-01-12T13:41:31.436Z,22.20
2019-01-12T13:44:02.293Z,22.07
2019-01-12T13:46:34.097Z,22.70
2019-01-12T13:49:04.923Z,21.40
2019-01-12T13:51:36.143Z,22.20
2019-01-12T13:54:07.358Z,23.07
2019-01-12T13:56:38.355Z,24.97
2019-01-12T13:59:09.307Z,22.40
2019-01-12T14:01:40.696Z,29.90
2019-01-12T14:04:12.053Z,36.43
2019-01-12T14:06:43.297Z,22.80
2019-01-12T14:09:13.810Z,24.27
2019-01-12T14:11:45.262Z,21.03
2019-01-12T14:14:16.532Z,22.23
2019-01-12T14:16:47.452Z,18.33
2019-01-12T14:19:18.194Z,21.00
2019-01-12T14:21:49.687Z,19.37
2019-01-12T14:24:20.968Z,19.17
2019-01-12T14:26:51.957Z,17.87
2019-01-12T14:29:23.501Z,17.43
2019-01-12T14:31:54.431Z,19.57
2019-01-12T14:34:24.943Z,17.00
2019-01-12T14:36:56.446Z,19.60
2019-01-12T14:39:27.495Z,18.97
2019-01-12T14:41:58.973Z,19.87
2019-01-12T14:44:30.442Z,19.40
2019-01-12T14:47:01.836Z,20.40
2019-01-12T14:49:32.668Z,20.27
2019-01-12T14:52:04.386Z,20.20
2019-01-12T14:54:35.778Z,20.10
2019-01-12T14:57:07.436Z,21.63
2019-01-12T14:59:38.043Z,20.37
2019-01-12T15:02:09.767Z,21.00
2019-01-12T15:04:40.807Z,20.93
2019-01-12T15:07:11.421Z,21.20
2019-01-12T15:09:42.383Z,21.20
2019-01-12T15:12:13.076Z,21.63
2019-01-12T15:14:43.478Z,21.30
2019-01-12T15:17:15.192Z,21.03
2019-01-12T15:19:45.934Z,22.07
2019-01-12T15:22:16.804Z,22.40
2019-01-12T15:24:47.244Z,26.30
2019-01-12T15:27:18.319Z,26.53
2019-01-12T15:29:49.447Z,26.23
2019-01-12T15:32:21.347Z,25.13
2019-01-12T15:34:52.338Z,25.10
2019-01-12T15:37:23.191Z,25.43
2019-01-12T15:39:53.670Z,25.33
2019-01-12T15:42:24.755Z,25.20
2019-01-12T15:44:55.404Z,24.17
2019-01-12T15:47:26.410Z,21.90
2019-01-12T15:49:56.767Z,22.27
2019-01-12T15:52:27.363Z,25.37
2019-01-12T15:54:58.493Z,22.90
2019-01-12T15:57:29.367Z,24.27
2019-01-12T16:00:00.096Z,23.97
2019-01-12T16:02:30.803Z,26.30
2019-01-12T16:05:01.421Z,22.00
2019-01-12T16:07:31.978Z,23.07
2019-01-12T16:10:02.414Z,24.13
2019-01-12T16:12:33.114Z,22.03
2019-01-12T16:15:04.595Z,23.33
2019-01-12T16:17:35.847Z,27.47
2019-01-12T16:20:10.766Z,25.30
2019-01-12T16:22:41.780Z,24.33
2019-01-12T16:25:13.774Z,22.57
2019-01-12T16:27:44.660Z,22.37
2019-01-12T16:30:17.796Z,21.43
2019-01-12T16:32:49.547Z,24.83
2019-01-12T16:35:20.308Z,21.80
2019-01-12T16:37:51.966Z,21.53
2019-01-12T16:40:25.006Z,22.60
2019-01-12T16:42:55.565Z,23.33
2019-01-12T16:45:26.320Z,23.37
2019-01-12T16:47:57.171Z,22.47
2019-01-12T16:50:27.849Z,22.20
2019-01-12T16:52:59.293Z,20.73
2019-01-12T16:55:29.757Z,22.83
2019-01-12T16:58:01.279Z,23.37
2019-01-12T17:00:32.372Z,22.50
2019-01-12T17:03:04.487Z,20.63
2019-01-12T17:05:35.311Z,22.23
2019-01-12T17:08:06.329Z,22.17
2019-01-12T17:10:36.742Z,19.13
2019-01-12T17:13:08.002Z,34.27
2019-01-12T17:15:39.184Z,30.37
2019-01-12T17:18:09.914Z,24.87
2019-01-12T17:20:40.613Z,22.63
2019-01-12T17:23:13.403Z,23.13
2019-01-12T17:25:44.767Z,25.83
2019-01-12T17:28:15.077Z,28.93
2019-01-12T17:30:45.822Z,27.80
2019-01-12T17:33:18.063Z,29.77
2019-01-12T17:35:48.730Z,28.17
2019-01-12T17:38:20.781Z,30.70
2019-01-12T17:40:52.373Z,29.50
2019-01-12T17:43:22.758Z,30.10
2019-01-12T17:45:53.066Z,31.37
2019-01-12T17:48:23.961Z,33.10
2019-01-12T17:50:54.665Z,33.50
2019-01-12T17:53:25.262Z,33.83
2019-01-12T17:55:58.243Z,33.90
2019-01-12T17:58:29.127Z,32.30
2019-01-12T18:01:00.147Z,34.53
2019-01-12T18:03:30.404Z,32.47
2019-01-12T18:06:00.805Z,32.73
2019-01-12T18:08:32.632Z,29.77
2019-01-12T18:11:03.769Z,31.10
2019-01-12T18:13:36.618Z,32.20
2019-01-12T18:16:07.011Z,31.10
2019-01-12T18:18:38.654Z,28.53
2019-01-12T18:21:09.088Z,38.30
2019-01-12T18:23:40.105Z,30.47
2019-01-12T18:26:11.911Z,33.53
2019-01-12T18:28:42.859Z,34.33
2019-01-12T18:31:14.002Z,32.93
2019-01-12T18:33:44.812Z,34.20
2019-01-12T18:36:15.231Z,33.00
2019-01-12T18:38:46.855Z,31.10
2019-01-12T18:41:17.429Z,33.10
2019-01-12T18:43:48.478Z,33.90
2019-01-12T18:46:18.826Z,30.47
2019-01-12T18:48:50.207Z,33.40
2019-01-12T18:51:20.992Z,34.10
2019-01-12T18:53:51.852Z,36.40
2019-01-12T18:56:23.254Z,31.63
2019-01-12T18:58:58.964Z,34.00
2019-01-12T19:01:26.335Z,34.27
2019-01-12T19:03:57.745Z,32.97
2019-01-12T19:06:29.165Z,49.87
2019-01-12T19:09:00.055Z,33.87
2019-01-12T19:11:30.715Z,30.23
2019-01-12T19:14:01.052Z,34.83
2019-01-12T19:16:31.958Z,45.10
2019-01-12T19:19:02.548Z,36.50
2019-01-12T19:21:33.391Z,35.33
2019-01-12T19:24:05.178Z,37.23
2019-01-12T19:26:36.034Z,33.23
2019-01-12T19:29:06.977Z,33.77
2019-01-12T19:31:37.689Z,37.57
2019-01-12T19:34:09.021Z,36.57
2019-01-12T19:36:42.314Z,36.70
2019-01-12T19:39:13.269Z,37.93
2019-01-12T19:41:47.390Z,38.90
2019-01-12T19:44:18.848Z,38.10
2019-01-12T19:46:49.955Z,40.00
2019-01-12T19:49:21.078Z,40.97
2019-01-12T19:51:52.254Z,40.03
2019-01-12T19:54:23.409Z,41.70
2019-01-12T19:56:54.038Z,46.20
2019-01-12T19:59:25.536Z,40.97
2019-01-12T20:01:56.382Z,47.03
2019-01-12T20:04:27.477Z,44.13
2019-01-12T20:06:58.260Z,45.57
2019-01-12T20:09:28.592Z,44.87
2019-01-12T20:11:59.077Z,45.53
2019-01-12T20:14:30.067Z,43.93
2019-01-12T20:17:02.428Z,45.40
2019-01-12T20:19:33.121Z,49.77
2019-01-12T20:22:03.782Z,47.37
2019-01-12T20:24:34.373Z,48.63
2019-01-12T20:27:04.829Z,52.77
2019-01-12T20:29:35.320Z,51.20
2019-01-12T20:32:21.425Z,47.97
2019-01-12T20:35:01.789Z,52.87
2019-01-12T20:38:02.676Z,51.57
2019-01-12T20:41:07.972Z,50.73
2019-01-12T20:44:09.967Z,50.90
2019-01-12T20:47:19.748Z,49.70
2019-01-12T20:50:28.284Z,52.03
2019-01-12T20:53:21.898Z,44.70
2019-01-12T20:56:12.681Z,50.40
2019-01-12T20:58:58.130Z,65.93
2019-01-12T21:02:02.875Z,50.37
2019-01-12T21:05:00.202Z,46.43
2019-01-12T21:08:07.340Z,47.03
2019-01-12T21:11:08.936Z,45.97
2019-01-12T21:14:10.506Z,36.60
2019-01-12T21:16:59.936Z,49.77
2019-01-12T21:19:30.348Z,48.47
2019-01-12T21:22:01.654Z,46.10
2019-01-12T21:24:32.252Z,41.43
2019-01-12T21:27:02.942Z,42.13
2019-01-12T21:29:35.285Z,42.83
2019-01-12T21:32:06.871Z,43.27
2019-01-12T21:34:37.566Z,44.57
2019-01-12T21:37:08.725Z,40.07
2019-01-12T21:39:39.431Z,43.30
2019-01-12T21:42:10.798Z,40.40
2019-01-12T21:44:42.625Z,43.00
2019-01-12T21:47:13.841Z,43.50
2019-01-12T21:49:44.474Z,45.80
2019-01-12T21:52:16.773Z,35.50
2019-01-12T21:54:49.260Z,41.10
2019-01-12T21:57:20.328Z,40.97
2019-01-12T22:00:01.961Z,41.73
2019-01-12T22:02:52.330Z,43.73
2019-01-12T22:05:43.981Z,42.33
2019-01-12T22:08:35.835Z,41.03
2019-01-12T22:11:11.720Z,42.00
2019-01-12T22:13:58.503Z,43.60
2019-01-12T22:16:46.527Z,41.17
2019-01-12T22:19:30.485Z,40.07
2019-01-12T22:22:07.569Z,40.97
2019-01-12T22:24:52.816Z,46.13
2019-01-12T22:27:30.446Z,41.87
2019-01-12T22:30:23.643Z,44.93
2019-01-12T22:33:19.430Z,45.70
2019-01-12T22:35:58.400Z,46.40
2019-01-12T22:38:31.639Z,44.10
2019-01-12T22:41:13.253Z,49.47
2019-01-12T22:44:21.299Z,43.37
2019-01-12T22:47:05.050Z,47.30
2019-01-12T22:49:52.243Z,44.60
2019-01-12T22:52:26.495Z,42.47
2019-01-12T22:55:13.640Z,41.63
2019-01-12T22:58:02.719Z,48.60
2019-01-12T23:00:52.811Z,45.33
2019-01-12T23:03:38.305Z,45.83
2019-01-12T23:06:26.005Z,45.60
2019-01-12T23:09:16.934Z,46.60
2019-01-12T23:11:50.535Z,46.00
2019-01-12T23:14:26.481Z,46.73
2019-01-12T23:17:06.531Z,49.10
2019-01-12T23:19:43.751Z,44.30
2019-01-12T23:22:21.386Z,46.63
2019-01-12T23:24:55.770Z,44.63
2019-01-12T23:27:26.895Z,47.90
2019-01-12T23:30:04.517Z,44.23
2019-01-12T23:32:37.201Z,45.33
2019-01-12T23:35:10.934Z,37.00
2019-01-12T23:37:47.872Z,42.13
2019-01-12T23:40:29.276Z,43.43
2019-01-12T23:43:02.575Z,39.10
2019-01-12T23:45:33.504Z,39.97
2019-01-12T23:48:07.575Z,45.23
2019-01-12T23:50:44.431Z,49.77
2019-01-12T23:53:16.305Z,40.00
2019-01-12T23:55:47.619Z,45.60
2019-01-12T23:58:25.184Z,43.37
